This is the latest recevied weather packets stored in our database for station/object KB0BDN-13. If no packets are shown the sender has not sent any weather packets the latest 10 day(s).
| Time | Temp. | Humidity | Pressure | Rain* | Wind** | Luminosity | Snow |
|---|---|---|---|---|---|---|---|
| 1777748524 | 12.78° C | 32% | 1006.8 hPa | 0 mm | - | - | - |
| 1777747623 | 12.78° C | 33% | 1006.9 hPa | 0 mm | - | - | - |
| 1777746723 | 12.22° C | 34% | 1007.1 hPa | 0 mm | - | - | - |
| 1777745823 | 11.11° C | 33% | 1007.5 hPa | 0 mm | - | - | - |
| 1777744923 | 11.11° C | 34% | 1007.7 hPa | 0 mm | - | - | - |
| 1777744023 | 11.11° C | 35% | 1008.1 hPa | 0 mm | - | - | - |
| 1777743123 | 11.11° C | 33% | 1008.1 hPa | 0 mm | - | - | - |
| 1777742223 | 10.56° C | 36% | 1008.7 hPa | 0 mm | - | - | - |
| 1777741323 | 10.56° C | 35% | 1008.8 hPa | 0 mm | - | - | - |
| 1777740423 | 10.56° C | 36% | 1009.2 hPa | 0 mm | - | - | - |
| 1777739523 | 10° C | 37% | 1009.3 hPa | 0 mm | - | - | - |
| 1777738623 | 10° C | 37% | 1009.4 hPa | 0 mm | - | - | - |
| 1777737723 | 9.44° C | 38% | 1009.8 hPa | 0 mm | - | - | - |
| 1777736823 | 9.44° C | 39% | 1009.9 hPa | 0 mm | - | - | - |
| 1777735923 | 8.89° C | 38% | 1010 hPa | 0 mm | - | - | - |
| 1777735023 | 9.44° C | 38% | 1010.3 hPa | 0 mm | - | - | - |
| 1777734123 | 8.89° C | 39% | 1010.6 hPa | 0 mm | - | - | - |
| 1777733223 | 8.33° C | 40% | 1010.7 hPa | 0 mm | - | - | - |
| 1777732323 | 7.78° C | 42% | 1010.7 hPa | 0 mm | - | - | - |
| 1777731423 | 7.22° C | 43% | 1011 hPa | 0 mm | - | - | - |
| 1777730523 | 6.67° C | 46% | 1011.2 hPa | 0 mm | - | - | - |
| 1777729623 | 5.56° C | 52% | 1011.2 hPa | 0 mm | - | - | - |
| 1777728723 | 5° C | 56% | 1011.3 hPa | 0 mm | - | - | - |
| 1777727824 | 3.89° C | 64% | 1011.3 hPa | 0 mm | - | - | - |
| 1777726923 | 1.67° C | 76% | 1011.4 hPa | 0 mm | - | - | - |
* Rain latest hour (hover to see other rain measurements)
** Current wind speed in m/s (hover to see current wind gust speed)